This is the latest recevied weather packets stored in our database for station/object WX7FGZ-7. If no packets are shown the sender has not sent any weather packets the latest 10 day(s).
| Time | Temp. | Humidity | Pressure | Rain* | Wind** | Luminosity | Snow |
|---|---|---|---|---|---|---|---|
| 1777939161 | 21.67° C | 24% | 1011.7 hPa | 0 mm | - | - | - |
| 1777938857 | 21.67° C | 24% | 1011.7 hPa | 0 mm | - | - | - |
| 1777938554 | 22.22° C | 23% | 1011.6 hPa | 0 mm | - | - | - |
| 1777938253 | 22.22° C | 22% | 1011.7 hPa | 0 mm | - | - | - |
| 1777937954 | 22.22° C | 22% | 1011.7 hPa | 0 mm | - | - | - |
| 1777937353 | 22.78° C | 23% | 1011.7 hPa | 0 mm | - | - | - |
| 1777937062 | 22.78° C | 22% | 1011.7 hPa | 0 mm | - | - | - |
| 1777936761 | 22.78° C | 23% | 1011.6 hPa | 0 mm | - | - | - |
| 1777936462 | 22.78° C | 22% | 1011.5 hPa | 0 mm | - | - | - |
| 1777935868 | 23.33° C | 22% | 1011.6 hPa | 0 mm | - | - | - |
| 1777935561 | 23.89° C | 20% | 1011.6 hPa | 0 mm | - | - | - |
| 1777935253 | 24.44° C | 21% | 1011.7 hPa | 0 mm | - | - | - |
| 1777934953 | 24.44° C | 20% | 1011.7 hPa | 0 mm | - | - | - |
| 1777934331 | 23.33° C | 21% | 1011.8 hPa | 0 mm | - | - | - |
| 1777934058 | 23.33° C | 21% | 1011.8 hPa | 0 mm | - | - | - |
| 1777933189 | 23.33° C | 21% | 1012.1 hPa | 0 mm | - | - | - |
| 1777932858 | 23.33° C | 21% | 1012.1 hPa | 0 mm | - | - | - |
| 1777932587 | 12.22° C | 48% | 1015 hPa | 0 mm | - | - | - |
| 1777932575 | 11.67° C | 52% | 1015.1 hPa | 0 mm | - | - | - |
| 1777932571 | 23.33° C | 21% | 1012.1 hPa | 0 mm | - | - | - |
| 1777932568 | 11.11° C | 57% | 1015 hPa | 0 mm | - | - | - |
| 1777932553 | 23.89° C | 21% | 1012.2 hPa | 0 mm | - | - | - |
| 1777932253 | 23.33° C | 21% | 1012.1 hPa | 0 mm | - | - | - |
| 1777932242 | 23.33° C | 20% | 1012.3 hPa | 0 mm | - | - | - |
| 1777932086 | 23.33° C | 21% | 1012.5 hPa | 0 mm | - | - | - |
* Rain latest hour (hover to see other rain measurements)
** Current wind speed in m/s (hover to see current wind gust speed)